Time;durP1;ratioP1;P1;durP2;ratioP2;P2;SDS_P1;SDS_P2;PMS_P1;PMS_P2;Temp;Humidity;BMP_temperature;BMP_pressure;BME280_temperature;BME280_humidity;BME280_pressure;Samples;Min_cycle;Max_cycle;Signal;HPM_P1;HPM_P2
2021/09/25 00:02:12;;;;;;;1.60;1.50;;;;;;;18.21;56.56;98785.69;1783430;78;21011;-60
2021/09/25 00:04:38;;;;;;;1.37;1.27;;;;;;;18.21;56.59;98783.53;1764892;78;21039;-60
2021/09/25 00:07:05;;;;;;;1.70;1.32;;;;;;;18.21;56.59;98788.91;1772860;78;21639;-60
2021/09/25 00:09:31;;;;;;;1.30;1.20;;;;;;;18.21;56.58;98794.29;1779295;79;21499;-59
2021/09/25 00:11:58;;;;;;;1.42;1.32;;;;;;;18.19;56.58;98802.59;1755709;79;21077;-59
2021/09/25 00:14:24;;;;;;;1.67;1.37;;;;;;;18.18;56.57;98802.31;1768630;79;21040;-60
2021/09/25 00:16:50;;;;;;;1.30;1.20;;;;;;;18.18;56.56;98794.79;1767550;78;21767;-59
2021/09/25 00:19:16;;;;;;;1.42;1.32;;;;;;;18.17;56.57;98793.95;1752300;79;21389;-59
2021/09/25 00:21:43;;;;;;;1.42;1.10;;;;;;;18.17;56.59;98795.30;1780042;79;21109;-59
2021/09/25 00:24:09;;;;;;;1.30;1.20;;;;;;;18.16;56.55;98789.65;1773442;79;21034;-59
2021/09/25 00:26:35;;;;;;;1.45;1.35;;;;;;;18.17;56.56;98791.27;1750308;79;21561;-60
2021/09/25 00:29:02;;;;;;;2.12;1.40;;;;;;;18.17;56.55;98787.23;1767733;79;22099;-60
2021/09/25 00:31:28;;;;;;;1.57;1.40;;;;;;;18.15;56.53;98790.69;1752193;79;21066;-60
2021/09/25 00:33:54;;;;;;;1.30;1.20;;;;;;;18.14;56.53;98795.80;1771511;79;21010;-59
2021/09/25 00:36:20;;;;;;;1.30;1.20;;;;;;;18.15;56.51;98797.95;1750787;79;21026;-59
2021/09/25 00:38:47;;;;;;;1.32;1.22;;;;;;;18.15;56.52;98804.66;1778549;79;21053;-59
2021/09/25 00:41:14;;;;;;;1.70;1.60;;;;;;;18.13;56.52;98800.86;1758740;79;22117;-59
2021/09/25 00:43:40;;;;;;;1.20;1.05;;;;;;;18.13;56.52;98807.59;1756053;79;21003;-59
2021/09/25 00:46:06;;;;;;;1.40;1.30;;;;;;;18.13;56.52;98813.50;1777594;79;20995;-58
2021/09/25 00:48:32;;;;;;;1.30;1.20;;;;;;;18.13;56.50;98814.84;1771969;79;21060;-59
2021/09/25 00:50:59;;;;;;;1.60;1.40;;;;;;;18.12;56.50;98815.38;1771504;79;21022;-59
2021/09/25 00:53:25;;;;;;;1.20;1.10;;;;;;;18.11;56.50;98821.80;1781477;80;21048;-59
2021/09/25 00:55:51;;;;;;;1.72;1.42;;;;;;;18.11;56.49;98827.70;1779361;78;21525;-58
2021/09/25 00:58:18;;;;;;;1.42;1.32;;;;;;;18.09;56.48;98829.28;1760249;80;21037;-58
2021/09/25 01:00:44;;;;;;;1.27;1.17;;;;;;;18.09;56.47;98830.62;1780465;78;21022;-59
2021/09/25 01:03:10;;;;;;;1.65;1.25;;;;;;;18.09;56.48;98826.59;1762137;78;21500;-59
2021/09/25 01:05:40;;;;;;;1.55;1.40;;;;;;;18.08;56.46;98826.33;1765251;78;21339;-59
2021/09/25 01:08:05;;;;;;;1.42;1.32;;;;;;;18.08;56.47;98836.53;1753840;79;21017;-59
2021/09/25 01:10:31;;;;;;;1.22;1.12;;;;;;;18.08;56.44;98834.38;1768045;78;21025;-59
2021/09/25 01:12:57;;;;;;;1.52;1.42;;;;;;;18.07;56.45;98840.80;1770245;78;22105;-58
2021/09/25 01:15:24;;;;;;;1.95;1.15;;;;;;;18.07;56.44;98842.14;1735274;78;21050;-59
2021/09/25 01:17:50;;;;;;;1.10;1.10;;;;;;;18.05;56.44;98839.69;1778451;78;21133;-59
2021/09/25 01:20:16;;;;;;;1.32;1.20;;;;;;;18.05;56.42;98834.31;1763293;79;21282;-59
2021/09/25 01:22:43;;;;;;;1.87;1.20;;;;;;;18.05;56.44;98830.28;1779086;78;21014;-59
2021/09/25 01:25:10;;;;;;;1.47;1.20;;;;;;;18.05;56.43;98831.62;1773960;78;21101;-59
2021/09/25 01:27:37;;;;;;;1.25;1.00;;;;;;;18.05;56.39;98834.85;1780360;78;21011;-59
2021/09/25 01:30:08;;;;;;;1.30;1.20;;;;;;;18.04;56.37;98834.55;1771219;78;21476;-59
2021/09/25 01:32:34;;;;;;;1.30;1.10;;;;;;;18.04;56.39;98834.55;1781164;78;21022;-59
2021/09/25 01:35:01;;;;;;;1.40;1.30;;;;;;;18.02;56.39;98830.78;1786508;79;21014;-59
2021/09/25 01:37:27;;;;;;;1.10;1.00;;;;;;;18.02;56.39;98835.31;1790587;78;21022;-60
2021/09/25 01:39:54;;;;;;;1.50;1.40;;;;;;;18.01;56.40;98834.51;1787568;79;21112;-58
2021/09/25 01:42:20;;;;;;;1.22;1.12;;;;;;;18.01;56.40;98841.23;1787394;78;21503;-60
2021/09/25 01:44:50;;;;;;;1.45;1.20;;;;;;;18.01;56.39;98849.83;1802758;79;21008;-58
2021/09/25 01:47:16;;;;;;;1.20;1.10;;;;;;;18.00;56.40;98847.67;1775275;79;21541;-60
2021/09/25 01:49:43;;;;;;;1.20;1.10;;;;;;;17.99;56.38;98848.71;1791450;78;21025;-59
2021/09/25 01:52:09;;;;;;;1.40;1.30;;;;;;;18.00;56.37;98856.23;1797526;78;20991;-60
2021/09/25 01:54:35;;;;;;;1.50;1.10;;;;;;;17.99;56.37;98864.03;1789296;79;21617;-58
2021/09/25 01:57:02;;;;;;;1.20;1.00;;;;;;;17.99;56.37;98864.03;1771516;79;21022;-59
2021/09/25 01:59:28;;;;;;;4.25;1.10;;;;;;;17.98;56.36;98867.25;1777151;80;21007;-59
2021/09/25 02:01:56;;;;;;;1.25;1.15;;;;;;;17.98;56.37;98871.78;1771958;78;21069;-59
2021/09/25 02:04:22;;;;;;;1.20;1.10;;;;;;;17.97;56.35;98873.66;1779513;78;21435;-60
2021/09/25 02:06:48;;;;;;;2.30;1.10;;;;;;;17.97;56.36;98879.57;1789818;78;21104;-59
2021/09/25 02:09:14;;;;;;;1.30;1.20;;;;;;;17.97;56.35;98891.13;1804903;78;21058;-59
2021/09/25 02:11:41;;;;;;;1.07;0.98;;;;;;;17.97;56.33;98895.70;1796869;78;21022;-59
2021/09/25 02:14:07;;;;;;;1.30;1.20;;;;;;;17.96;56.32;98896.73;1798044;78;21021;-58
2021/09/25 02:16:33;;;;;;;1.10;1.00;;;;;;;17.96;56.32;98908.83;1795753;78;21072;-59
2021/09/25 02:18:59;;;;;;;1.37;1.27;;;;;;;17.97;56.31;98914.50;1798302;78;21180;-59
2021/09/25 02:21:26;;;;;;;1.10;1.00;;;;;;;17.95;56.30;98910.70;1788860;78;20979;-60
2021/09/25 02:23:52;;;;;;;1.05;0.93;;;;;;;17.95;56.30;98912.05;1799140;78;21006;-58
2021/09/25 02:26:18;;;;;;;2.17;1.00;;;;;;;17.95;56.27;98916.61;1791956;78;21049;-59
2021/09/25 02:28:44;;;;;;;1.27;1.17;;;;;;;17.94;56.29;98922.48;1803767;78;21040;-58
2021/09/25 02:31:11;;;;;;;1.10;0.95;;;;;;;17.94;56.29;98927.86;1799243;78;21124;-59
2021/09/25 02:33:37;;;;;;;0.90;0.90;;;;;;;17.93;56.28;98926.78;1795032;78;21714;-59
2021/09/25 02:36:04;;;;;;;1.22;1.12;;;;;;;17.94;56.26;98928.40;1794997;78;21068;-59
2021/09/25 02:38:30;;;;;;;1.15;1.00;;;;;;;17.93;56.27;98930.81;1811187;78;21729;-59
2021/09/25 02:40:56;;;;;;;1.00;1.00;;;;;;;17.92;56.27;98934.00;1808700;78;21091;-58
2021/09/25 02:43:22;;;;;;;1.35;1.25;;;;;;;17.93;56.26;98945.59;1815362;78;21055;-60
2021/09/25 02:45:48;;;;;;;1.55;1.45;;;;;;;17.93;56.26;98948.28;1810460;78;20997;-59
2021/09/25 02:48:15;;;;;;;1.30;1.22;;;;;;;17.92;56.25;98950.13;1803491;78;21046;-60
2021/09/25 02:50:41;;;;;;;1.30;1.20;;;;;;;17.92;56.23;98955.50;1797237;78;21085;-59
2021/09/25 02:53:07;;;;;;;1.30;1.20;;;;;;;17.91;56.24;98961.94;1811095;78;21073;-59
2021/09/25 02:55:34;;;;;;;0.98;0.90;;;;;;;17.92;56.22;98964.09;1793760;78;21068;-58
2021/09/25 02:58:00;;;;;;;1.02;1.02;;;;;;;17.91;56.20;98967.84;1780707;78;21018;-59
2021/09/25 03:00:26;;;;;;;1.30;1.20;;;;;;;17.92;56.20;98970.28;1777118;78;20983;-60
2021/09/25 03:02:52;;;;;;;1.12;1.05;;;;;;;17.91;56.21;98970.00;1791819;78;21072;-59
2021/09/25 03:05:19;;;;;;;1.40;1.20;;;;;;;17.91;56.18;98981.28;1790819;78;21028;-59
2021/09/25 03:07:45;;;;;;;1.32;1.22;;;;;;;17.91;56.17;98983.97;1787962;78;22280;-58
2021/09/25 03:10:12;;;;;;;1.27;1.17;;;;;;;17.90;56.18;98990.38;1752093;79;21062;-58
2021/09/25 03:12:38;;;;;;;1.10;1.00;;;;;;;17.90;56.16;98995.75;1772250;78;20983;-59
2021/09/25 03:15:05;;;;;;;1.20;1.10;;;;;;;17.88;56.16;98999.48;1765842;78;21010;-59
2021/09/25 03:17:31;;;;;;;1.02;0.93;;;;;;;17.88;56.17;98995.98;1748279;78;21033;-59
2021/09/25 03:19:58;;;;;;;1.25;1.12;;;;;;;17.90;56.16;99002.47;1764793;78;21073;-59
2021/09/25 03:22:25;;;;;;;1.87;1.07;;;;;;;17.88;56.15;99004.85;1778683;78;21092;-59
2021/09/25 03:24:51;;;;;;;1.17;1.07;;;;;;;17.89;56.14;99008.38;1765874;78;21023;-59
2021/09/25 03:27:17;;;;;;;1.07;1.00;;;;;;;17.89;56.14;99013.75;1779349;78;21589;-60
2021/09/25 03:29:43;;;;;;;1.22;1.00;;;;;;;17.88;56.13;99016.13;1767044;79;21070;-59
2021/09/25 03:32:10;;;;;;;0.90;0.90;;;;;;;17.88;56.11;99026.34;1773315;78;21089;-60
2021/09/25 03:34:36;;;;;;;0.90;0.90;;;;;;;17.87;56.12;99036.81;1756666;78;21535;-59
2021/09/25 03:37:02;;;;;;;1.07;1.00;;;;;;;17.86;56.11;99036.52;1775852;78;20975;-59
2021/09/25 03:39:29;;;;;;;1.20;1.10;;;;;;;17.87;56.09;99040.04;1780437;79;21707;-60
2021/09/25 03:41:55;;;;;;;1.30;1.10;;;;;;;17.86;56.10;99041.89;1759640;78;20998;-59
2021/09/25 03:44:21;;;;;;;1.12;1.12;;;;;;;17.86;56.10;99044.57;1777725;78;21103;-59
2021/09/25 03:46:48;;;;;;;1.40;1.30;;;;;;;17.86;56.10;99057.20;1777222;80;21045;-63
2021/09/25 03:49:14;;;;;;;1.10;1.00;;;;;;;17.85;56.08;99057.73;1779688;78;21241;-59
2021/09/25 03:51:40;;;;;;;0.90;0.90;;;;;;;17.86;56.10;99055.85;1778875;78;21007;-60
2021/09/25 03:54:06;;;;;;;1.20;1.10;;;;;;;17.84;56.08;99054.73;1779254;78;21004;-59
2021/09/25 03:56:33;;;;;;;1.25;1.15;;;;;;;17.84;56.07;99050.70;1752050;78;21510;-61
2021/09/25 03:58:59;;;;;;;1.45;1.10;;;;;;;17.84;56.05;99049.89;1779956;78;21069;-59
2021/09/25 04:01:25;;;;;;;1.10;1.00;;;;;;;17.83;56.07;99058.45;1777385;78;21061;-59
2021/09/25 04:03:54;;;;;;;1.25;1.15;;;;;;;17.83;56.06;99066.52;1768142;80;21065;-60
2021/09/25 04:06:20;;;;;;;1.20;1.10;;;;;;;17.83;56.06;99066.52;1769161;79;21038;-59
2021/09/25 04:08:47;;;;;;;1.15;1.10;;;;;;;17.83;56.05;99072.42;1758373;78;21083;-59
2021/09/25 04:11:13;;;;;;;1.15;1.10;;;;;;;17.83;56.05;99081.83;1779118;78;21589;-60
2021/09/25 04:13:39;;;;;;;1.10;1.00;;;;;;;17.82;56.02;99085.02;1791108;78;21030;-60
2021/09/25 04:16:05;;;;;;;2.17;1.15;;;;;;;17.82;56.02;99093.08;1781407;78;21061;-60
2021/09/25 04:18:32;;;;;;;0.82;0.82;;;;;;;17.82;56.02;99098.45;1783159;78;21032;-60
2021/09/25 04:20:58;;;;;;;1.35;1.12;;;;;;;17.81;56.01;99102.20;1786752;78;21849;-59
2021/09/25 04:23:24;;;;;;;1.32;1.15;;;;;;;17.81;56.01;99103.55;1811345;78;21075;-60
2021/09/25 04:25:51;;;;;;;1.05;0.98;;;;;;;17.81;56.00;99099.52;1789213;78;21063;-58
2021/09/25 04:28:17;;;;;;;2.77;1.30;;;;;;;17.80;56.00;99096.52;1784893;78;21025;-62
2021/09/25 04:30:43;;;;;;;1.10;1.00;;;;;;;17.81;55.98;99095.98;1793562;78;21029;-60
2021/09/25 04:33:10;;;;;;;1.00;0.90;;;;;;;17.81;55.98;99102.20;1780270;78;21130;-59
2021/09/25 04:35:37;;;;;;;0.88;0.88;;;;;;;17.81;55.96;99106.23;1785069;78;21509;-60
2021/09/25 04:38:04;;;;;;;1.10;1.02;;;;;;;17.80;55.96;99107.27;1789025;78;21502;-60
2021/09/25 04:40:31;;;;;;;1.15;1.05;;;;;;;17.79;55.94;99098.09;1791151;78;21498;-59
2021/09/25 04:43:01;;;;;;;1.22;1.12;;;;;;;17.80;55.95;99104.58;1786194;78;21031;-60
2021/09/25 04:45:27;;;;;;;1.00;1.00;;;;;;;17.80;55.96;99105.92;1744281;80;22058;-59
2021/09/25 04:47:54;;;;;;;1.25;1.07;;;;;;;17.80;55.94;99109.95;1791554;78;21018;-60
2021/09/25 04:50:21;;;;;;;0.93;0.93;;;;;;;17.80;55.92;99118.02;1782356;78;21028;-60
2021/09/25 04:52:47;;;;;;;1.42;1.32;;;;;;;17.80;55.94;99123.38;1794568;78;21731;-60
2021/09/25 04:55:14;;;;;;;1.07;0.90;;;;;;;17.81;55.93;99126.88;1790779;78;21036;-59
2021/09/25 04:57:40;;;;;;;1.20;1.10;;;;;;;17.80;55.91;99142.19;1776883;78;21969;-59
2021/09/25 05:00:08;;;;;;;1.22;1.00;;;;;;;17.81;55.91;99149.72;1768797;78;21075;-59
2021/09/25 05:02:34;;;;;;;0.90;0.90;;;;;;;17.81;55.91;99155.09;1778847;78;21075;-59
2021/09/25 05:05:01;;;;;;;1.82;1.20;;;;;;;17.82;55.88;99152.72;1786609;78;21049;-60
2021/09/25 05:07:27;;;;;;;1.10;1.00;;;;;;;17.82;55.87;99156.75;1793011;78;21026;-59
2021/09/25 05:09:54;;;;;;;1.07;1.00;;;;;;;17.82;55.84;99162.93;1783093;78;21126;-60
2021/09/25 05:12:20;;;;;;;1.02;0.90;;;;;;;17.83;55.83;99169.95;1776313;79;21018;-59
2021/09/25 05:14:46;;;;;;;1.30;1.12;;;;;;;17.83;55.85;99173.17;1757038;79;21045;-59
2021/09/25 05:17:12;;;;;;;0.98;0.98;;;;;;;17.83;55.82;99180.70;1738818;79;21072;-60
2021/09/25 05:19:38;;;;;;;1.15;1.00;;;;;;;17.83;55.82;99186.08;1744140;80;21057;-59
2021/09/25 05:22:05;;;;;;;0.90;0.90;;;;;;;17.83;55.83;99179.36;1761374;79;21703;-62
2021/09/25 05:24:31;;;;;;;1.12;1.00;;;;;;;17.83;55.81;99186.08;1754809;80;21533;-58
2021/09/25 05:26:57;;;;;;;1.07;1.05;;;;;;;17.84;55.81;99190.95;1751928;79;21116;-60
2021/09/25 05:29:24;;;;;;;1.22;1.12;;;;;;;17.84;55.80;99195.78;1767411;79;21014;-60
2021/09/25 05:31:52;;;;;;;2.45;1.05;;;;;;;17.84;55.78;99200.35;1778089;79;20987;-60
2021/09/25 05:34:18;;;;;;;1.05;1.00;;;;;;;17.85;55.78;99199.31;1751332;79;21194;-60
2021/09/25 05:36:45;;;;;;;1.45;1.35;;;;;;;17.85;55.75;99207.38;1780644;79;21014;-59
2021/09/25 05:39:11;;;;;;;0.80;0.80;;;;;;;17.86;55.72;99215.19;1746307;79;21040;-59
2021/09/25 05:41:37;;;;;;;1.20;1.10;;;;;;;17.85;55.70;99212.22;1758922;80;21042;-59
2021/09/25 05:44:04;;;;;;;1.02;1.02;;;;;;;17.86;55.70;99215.19;1751208;79;21076;-58
2021/09/25 05:46:31;;;;;;;0.95;0.95;;;;;;;17.86;55.71;99217.88;1766118;79;21090;-60
2021/09/25 05:48:57;;;;;;;0.98;0.90;;;;;;;17.86;55.70;99222.44;1765396;80;21081;-62
2021/09/25 05:51:23;;;;;;;1.22;1.12;;;;;;;17.87;55.70;99221.40;1780838;79;21349;-58
2021/09/25 05:53:49;;;;;;;0.90;0.90;;;;;;;17.86;55.70;99236.68;1757283;79;21693;-59
2021/09/25 05:56:16;;;;;;;1.75;1.10;;;;;;;17.87;55.67;99237.52;1738754;79;21491;-58
2021/09/25 05:58:42;;;;;;;0.80;0.80;;;;;;;17.88;55.67;99243.17;1773798;79;21132;-58
2021/09/25 06:01:08;;;;;;;1.32;1.22;;;;;;;17.88;55.68;99248.02;1780514;80;21018;-59
2021/09/25 06:03:34;;;;;;;1.27;0.90;;;;;;;17.90;55.64;99244.30;1758344;79;21002;-61
2021/09/25 06:06:00;;;;;;;0.98;0.98;;;;;;;17.90;55.62;99247.80;1761744;79;21056;-59
2021/09/25 06:08:27;;;;;;;1.02;0.95;;;;;;;17.90;55.60;99251.83;1750212;79;21049;-60
2021/09/25 06:10:53;;;;;;;2.20;1.50;;;;;;;17.91;55.60;99256.17;1754555;80;21148;-59
2021/09/25 06:13:19;;;;;;;1.25;1.07;;;;;;;17.91;55.60;99259.39;1752435;79;21053;-60
2021/09/25 06:15:46;;;;;;;0.98;0.98;;;;;;;17.91;55.56;99259.39;1750183;79;21062;-59
2021/09/25 06:18:15;;;;;;;0.90;0.90;;;;;;;17.92;55.57;99262.35;1765264;79;21533;-60
2021/09/25 06:20:41;;;;;;;1.20;1.10;;;;;;;17.92;55.54;99256.98;1781662;79;21034;-59
2021/09/25 06:23:08;;;;;;;0.85;0.85;;;;;;;17.92;55.53;99259.67;1797860;79;21118;-59
2021/09/25 06:25:35;;;;;;;0.88;0.88;;;;;;;17.93;55.53;99255.95;1788661;79;21026;-59
2021/09/25 06:28:01;;;;;;;1.52;1.42;;;;;;;17.94;55.51;99260.25;1811375;79;21581;-60
2021/09/25 06:30:28;;;;;;;0.98;0.98;;;;;;;17.94;55.50;99263.75;1809728;79;21048;-59
2021/09/25 06:32:56;;;;;;;0.93;0.93;;;;;;;17.95;55.47;99265.41;1794680;79;21042;-60
2021/09/25 06:35:22;;;;;;;1.20;1.10;;;;;;;17.96;55.47;99270.25;1777482;79;21070;-59
2021/09/25 06:37:49;;;;;;;1.12;1.10;;;;;;;17.96;55.46;99269.72;1785373;79;21014;-60
2021/09/25 06:40:15;;;;;;;1.05;1.00;;;;;;;17.98;55.47;99269.00;1811516;78;21010;-60
2021/09/25 06:42:42;;;;;;;0.90;0.90;;;;;;;18.00;55.46;99271.43;1805222;79;21069;-59
2021/09/25 06:45:10;;;;;;;1.17;1.15;;;;;;;18.01;55.48;99275.77;1780947;79;21037;-59
2021/09/25 06:47:37;;;;;;;1.30;0.90;;;;;;;18.03;55.48;99283.08;1792024;79;21083;-59
2021/09/25 06:50:05;;;;;;;2.22;1.02;;;;;;;18.06;55.44;99289.36;1799702;78;21011;-59
2021/09/25 06:52:32;;;;;;;0.90;0.90;;;;;;;18.07;55.41;99292.33;1763023;79;21068;-59
2021/09/25 06:54:59;;;;;;;1.10;1.00;;;;;;;18.11;55.39;99298.07;1774644;79;21066;-59
2021/09/25 06:57:26;;;;;;;0.82;0.82;;;;;;;18.13;55.40;99302.16;1769973;79;21022;-60
2021/09/25 06:59:53;;;;;;;0.90;0.90;;;;;;;18.16;55.36;99312.47;1783996;79;21184;-59
2021/09/25 07:02:20;;;;;;;0.88;0.88;;;;;;;18.18;55.34;99319.78;1791739;79;20999;-59
2021/09/25 07:04:47;;;;;;;1.00;1.00;;;;;;;18.21;55.34;99311.77;1785667;79;20994;-62
2021/09/25 07:07:13;;;;;;;0.80;0.80;;;;;;;18.24;55.30;99315.36;1797296;79;21058;-59
2021/09/25 07:09:41;;;;;;;1.25;1.17;;;;;;;18.25;55.25;99314.30;1775246;79;21011;-62
2021/09/25 07:12:09;;;;;;;0.90;0.90;;;;;;;18.27;55.23;99310.35;1808175;78;21467;-62
2021/09/25 07:14:36;;;;;;;1.20;1.10;;;;;;;18.30;55.20;99319.01;1797192;78;21062;-59
2021/09/25 07:17:03;;;;;;;0.90;0.80;;;;;;;18.31;55.15;99321.47;1754374;80;21119;-60
2021/09/25 07:19:30;;;;;;;0.90;0.90;;;;;;;18.34;55.11;99317.50;1786405;80;21506;-62
2021/09/25 07:21:58;;;;;;;0.93;0.93;;;;;;;18.35;55.08;99318.62;1797940;78;21010;-62
2021/09/25 07:24:24;;;;;;;0.80;0.80;;;;;;;18.36;55.04;99318.89;1776082;78;23368;-62
2021/09/25 07:26:50;;;;;;;0.90;0.90;;;;;;;18.39;55.01;99321.67;1778304;78;21015;-63
2021/09/25 07:29:16;;;;;;;0.93;0.93;;;;;;;18.40;54.95;99318.73;1790958;78;21105;-63
2021/09/25 07:31:43;;;;;;;1.00;1.00;;;;;;;18.42;54.95;99318.51;1794037;78;21354;-62
2021/09/25 07:34:09;;;;;;;1.45;1.00;;;;;;;18.43;54.91;99325.54;1781731;78;21612;-63
2021/09/25 07:36:35;;;;;;;1.10;1.10;;;;;;;18.44;54.89;99322.59;1799704;78;21756;-62
2021/09/25 07:39:01;;;;;;;0.95;0.90;;;;;;;18.47;54.86;99326.19;1780196;78;21029;-63
2021/09/25 07:41:28;;;;;;;0.90;0.90;;;;;;;18.51;54.82;99320.36;1796662;78;21045;-62
2021/09/25 07:43:54;;;;;;;1.22;1.10;;;;;;;18.53;54.73;99315.03;1783639;80;21062;-62
2021/09/25 07:46:20;;;;;;;1.10;1.00;;;;;;;18.55;54.71;99315.62;1798227;78;21498;-62
2021/09/25 07:48:47;;;;;;;1.20;1.10;;;;;;;18.58;54.66;99331.81;1810727;78;21141;-63
2021/09/25 07:51:13;;;;;;;1.10;1.00;;;;;;;18.60;54.64;99329.20;1803371;78;21186;-63
2021/09/25 07:53:39;;;;;;;1.02;1.00;;;;;;;18.62;54.56;99325.77;1785887;78;21069;-62
2021/09/25 07:56:06;;;;;;;0.90;0.90;;;;;;;18.64;54.52;99329.03;1789966;78;20998;-62
2021/09/25 07:58:32;;;;;;;1.02;1.02;;;;;;;18.66;54.50;99330.97;1759161;79;21014;-61
2021/09/25 08:00:58;;;;;;;1.20;1.10;;;;;;;18.67;54.45;99325.86;1767355;79;21145;-64
2021/09/25 08:03:24;;;;;;;1.20;1.10;;;;;;;18.71;54.39;99334.83;1753934;79;21042;-62
2021/09/25 08:05:51;;;;;;;1.10;1.00;;;;;;;18.73;54.36;99335.42;1760918;79;21030;-62
2021/09/25 08:08:17;;;;;;;1.37;0.93;;;;;;;18.76;54.34;99339.00;1772256;79;21045;-62
2021/09/25 08:10:43;;;;;;;1.05;1.00;;;;;;;18.78;54.27;99347.13;1759961;80;21058;-63
2021/09/25 08:13:10;;;;;;;1.15;1.10;;;;;;;18.81;54.26;99348.56;1755131;79;21073;-63
2021/09/25 08:15:36;;;;;;;0.93;0.90;;;;;;;18.83;54.22;99349.15;1768145;79;21005;-63
2021/09/25 08:18:02;;;;;;;1.00;1.00;;;;;;;18.85;54.23;99359.15;1758974;80;21526;-62
2021/09/25 08:20:28;;;;;;;1.45;1.20;;;;;;;18.88;54.19;99360.58;1746502;79;21053;-63
2021/09/25 08:25:12;;;;;;;0.95;0.95;;;;;;;18.96;54.13;99369.13;1889045;76;22474;-62
2021/09/25 08:27:40;;;;;;;0.90;0.90;;;;;;;18.93;54.15;99365.56;1855045;77;21111;-62
2021/09/25 08:30:08;;;;;;;1.12;1.10;;;;;;;18.96;54.09;99370.47;1868027;76;21170;-63
2021/09/25 08:32:34;;;;;;;1.25;1.07;;;;;;;18.99;54.05;99371.36;1861505;76;20937;-63
2021/09/25 08:35:01;;;;;;;1.00;1.00;;;;;;;19.02;54.00;99376.80;1860460;76;21347;-65
2021/09/25 08:37:27;;;;;;;1.10;1.10;;;;;;;19.05;53.97;99377.16;1858335;76;20961;-63
2021/09/25 08:39:53;;;;;;;1.20;1.10;;;;;;;19.07;53.91;99380.97;1832924;77;20957;-64
2021/09/25 08:42:19;;;;;;;1.10;1.10;;;;;;;19.10;53.88;99386.41;1836476;77;21207;-63
2021/09/25 08:44:50;;;;;;;1.00;1.00;;;;;;;19.14;53.80;99392.95;1828596;77;20970;-62
2021/09/25 08:47:18;;;;;;;1.05;1.05;;;;;;;19.16;53.81;99393.04;1857213;75;20998;-62
2021/09/25 08:49:45;;;;;;;1.20;1.10;;;;;;;19.18;53.76;99398.17;1836671;77;21045;-63
2021/09/25 08:52:11;;;;;;;1.10;1.10;;;;;;;19.20;53.73;99397.41;1859699;76;21530;-63
2021/09/25 08:54:37;;;;;;;1.45;1.35;;;;;;;19.22;53.70;99405.56;1852173;77;21051;-62
2021/09/25 08:57:05;;;;;;;1.10;1.00;;;;;;;19.23;53.66;99407.19;1850124;77;21021;-62
2021/09/25 08:59:32;;;;;;;1.65;0.98;;;;;;;19.26;53.58;99404.58;1826235;77;21041;-62
2021/09/25 09:02:15;;;;;;;2.20;1.20;;;;;;;19.27;53.58;99410.24;1844264;76;21017;-63
2021/09/25 09:04:51;;;;;;;1.12;1.10;;;;;;;19.29;53.56;99410.83;1849229;75;21056;-62
2021/09/25 09:07:23;;;;;;;1.00;1.00;;;;;;;19.31;53.52;99410.06;1827234;77;21104;-63
2021/09/25 09:09:49;;;;;;;1.07;1.07;;;;;;;19.33;53.45;99409.30;1840386;76;21073;-63
2021/09/25 09:12:26;;;;;;;1.10;1.10;;;;;;;19.34;53.48;99415.00;1818555;77;21096;-62
2021/09/25 09:14:53;;;;;;;1.15;1.10;;;;;;;19.35;53.42;99409.08;1837757;77;21044;-62
2021/09/25 09:17:28;;;;;;;1.02;1.02;;;;;;;19.36;53.42;99412.89;1832396;77;21037;-63
2021/09/25 09:19:54;;;;;;;1.15;1.10;;;;;;;19.37;53.38;99413.20;1842455;77;21079;-62
2021/09/25 09:22:23;;;;;;;1.47;1.37;;;;;;;19.38;53.38;99400.54;1838492;77;20978;-65
2021/09/25 09:24:52;;;;;;;1.47;1.20;;;;;;;19.39;53.39;99405.70;1844278;76;21096;-63
2021/09/25 09:27:24;;;;;;;1.10;1.05;;;;;;;19.40;53.34;99407.33;1844794;76;21497;-63
2021/09/25 09:30:11;;;;;;;0.93;0.93;;;;;;;19.42;53.31;99408.44;1853409;77;21573;-63
2021/09/25 09:32:42;;;;;;;0.82;0.82;;;;;;;19.42;53.32;99399.83;1842267;77;21072;-63
2021/09/25 09:35:14;;;;;;;1.00;1.00;;;;;;;19.42;53.29;99403.86;1859362;77;20982;-64
2021/09/25 09:37:40;;;;;;;0.90;0.90;;;;;;;19.43;53.27;99400.64;1845977;77;21045;-63
2021/09/25 09:40:07;;;;;;;1.00;1.00;;;;;;;19.44;53.24;99403.64;1844039;77;20977;-62
2021/09/25 09:42:47;;;;;;;1.12;1.02;;;;;;;19.44;53.23;99400.41;1849419;76;21099;-63
2021/09/25 09:45:31;;;;;;;1.12;1.02;;;;;;;19.45;53.21;99402.06;1851521;76;21134;-62
2021/09/25 09:47:59;;;;;;;0.93;0.93;;;;;;;19.46;53.19;99398.83;1835612;77;21033;-62
2021/09/25 09:50:25;;;;;;;1.10;1.00;;;;;;;19.45;53.21;99395.33;1842822;77;21508;-62
2021/09/25 09:52:51;;;;;;;1.00;1.00;;;;;;;19.45;53.21;99396.67;1797827;77;21111;-62
2021/09/25 09:55:23;;;;;;;0.95;0.95;;;;;;;19.47;53.17;99398.30;1800486;78;21072;-62
2021/09/25 09:58:05;;;;;;;1.00;1.00;;;;;;;19.47;53.15;99396.95;1790273;78;21210;-62
2021/09/25 10:00:32;;;;;;;1.12;1.10;;;;;;;19.49;53.16;99392.15;1796950;78;21061;-63
2021/09/25 10:03:00;;;;;;;0.90;0.90;;;;;;;19.48;53.14;99395.38;1821855;78;21023;-62
2021/09/25 10:05:27;;;;;;;1.10;1.00;;;;;;;19.50;53.14;99396.50;1814654;78;21057;-62
2021/09/25 10:07:53;;;;;;;1.20;1.10;;;;;;;19.50;53.08;99385.72;1809697;78;21020;-63
2021/09/25 10:10:23;;;;;;;1.00;1.00;;;;;;;19.51;53.08;99388.19;1821826;78;21191;-62
2021/09/25 10:12:50;;;;;;;1.10;1.00;;;;;;;19.53;53.01;99389.27;1806979;78;21006;-62
2021/09/25 10:15:17;;;;;;;1.30;1.20;;;;;;;19.56;53.02;99392.86;1782334;80;20990;-63
2021/09/25 10:17:43;;;;;;;1.00;1.00;;;;;;;19.59;52.90;99392.39;1757071;80;21034;-62
2021/09/25 10:20:11;;;;;;;2.17;0.93;;;;;;;19.64;52.88;99391.14;1799649;78;21068;-63
2021/09/25 10:22:37;;;;;;;1.00;1.00;;;;;;;19.70;52.87;99391.56;1784111;78;21097;-62
2021/09/25 10:25:10;;;;;;;0.90;0.90;;;;;;;19.76;52.80;99392.50;1783536;79;20996;-61
2021/09/25 10:27:41;;;;;;;1.32;1.22;;;;;;;19.83;52.77;99383.23;1813849;78;20994;-64
2021/09/25 10:30:10;;;;;;;1.52;1.05;;;;;;;19.89;52.67;99395.48;1813345;77;21100;-64
2021/09/25 10:32:50;;;;;;;1.05;1.00;;;;;;;19.94;52.58;99389.66;1808928;77;21021;-63
2021/09/25 10:35:20;;;;;;;1.10;1.10;;;;;;;20.01;52.47;99382.78;1848486;77;21182;-64
2021/09/25 10:37:51;;;;;;;1.07;1.05;;;;;;;20.08;52.33;99379.42;1843034;77;21619;-62
2021/09/25 10:40:20;;;;;;;0.82;0.82;;;;;;;20.12;52.30;99373.03;1834171;77;21045;-64
2021/09/25 10:43:18;;;;;;;1.00;1.00;;;;;;;20.16;52.20;99369.60;1822240;77;21029;-63
2021/09/25 10:45:45;;;;;;;0.90;0.90;;;;;;;20.20;52.13;99377.53;1812384;77;21045;-63
2021/09/25 10:48:25;;;;;;;1.30;1.20;;;;;;;20.22;52.07;99376.75;1820608;77;21065;-62
2021/09/25 10:50:59;;;;;;;1.20;1.10;;;;;;;20.23;52.02;99374.33;1853594;77;21029;-62
2021/09/25 10:53:39;;;;;;;1.00;1.00;;;;;;;20.27;51.98;99377.91;1841456;77;21037;-63
2021/09/25 10:56:09;;;;;;;1.40;1.30;;;;;;;20.28;51.94;99373.63;1826693;77;21029;-63
2021/09/25 10:58:36;;;;;;;1.40;1.07;;;;;;;20.31;51.89;99370.97;1821149;76;21037;-62
2021/09/25 11:01:12;;;;;;;1.07;1.05;;;;;;;20.33;51.84;99368.31;1830389;77;21127;-62
2021/09/25 11:03:51;;;;;;;1.17;1.17;;;;;;;20.39;51.80;99362.48;1848289;77;20990;-64
2021/09/25 11:06:40;;;;;;;1.30;1.20;;;;;;;20.46;51.78;99375.30;1815704;77;21053;-62
2021/09/25 11:09:09;;;;;;;1.42;1.32;;;;;;;20.50;51.67;99368.36;1837945;77;22058;-64
2021/09/25 11:11:49;;;;;;;1.00;1.00;;;;;;;20.54;51.62;99372.20;1853666;77;21099;-62
2021/09/25 11:14:26;;;;;;;1.10;1.00;;;;;;;20.55;51.56;99377.91;1845244;77;21169;-63
2021/09/25 11:17:00;;;;;;;1.32;1.15;;;;;;;20.57;51.52;99375.78;1821930;77;21608;-62
2021/09/25 11:19:30;;;;;;;1.20;1.10;;;;;;;20.57;51.48;99370.38;1836564;77;21498;-63
2021/09/25 11:22:07;;;;;;;1.30;1.20;;;;;;;20.58;51.45;99372.00;1840252;77;20997;-62
2021/09/25 11:24:44;;;;;;;0.90;0.90;;;;;;;20.59;51.40;99375.04;1827237;77;21056;-65
2021/09/25 11:27:24;;;;;;;1.15;1.05;;;;;;;20.60;51.40;99369.10;1857334;76;21202;-62
2021/09/25 11:30:03;;;;;;;1.10;1.00;;;;;;;20.61;51.38;99378.84;1820377;76;21709;-62
2021/09/25 11:32:33;;;;;;;1.25;1.05;;;;;;;20.61;51.34;99372.91;1849190;77;20993;-64
2021/09/25 11:35:01;;;;;;;1.45;1.20;;;;;;;20.65;51.32;99373.76;1857149;77;21017;-62
2021/09/25 11:37:29;;;;;;;1.00;0.93;;;;;;;20.66;51.29;99382.16;1840978;76;21022;-63
2021/09/25 11:39:57;;;;;;;1.17;1.10;;;;;;;20.68;51.26;99382.19;1828499;76;21057;-63